Time;durP1;ratioP1;P1;durP2;ratioP2;P2;SDS_P1;SDS_P2;PMS_P1;PMS_P2;Temp;Humidity;BMP_temperature;BMP_pressure;BME280_temperature;BME280_humidity;BME280_pressure;Samples;Min_cycle;Max_cycle;Signal;HPM_P1;HPM_P2
2021/12/14 00:01:12;;;;;;;19.95;13.23;;;9.20;99.90;;;;;;5029964;28;20514;-70
2021/12/14 00:03:42;;;;;;;18.65;12.18;;;9.30;99.90;;;;;;5046790;28;20057;-69
2021/12/14 00:06:11;;;;;;;21.23;14.00;;;9.30;99.90;;;;;;5045442;28;20041;-70
2021/12/14 00:08:48;;;;;;;17.25;12.02;;;9.20;99.90;;;;;;5050179;28;20114;-69
2021/12/14 00:11:51;;;;;;;21.83;11.27;;;9.20;99.90;;;;;;5051485;28;20048;-70
2021/12/14 00:14:27;;;;;;;20.20;12.95;;;9.20;99.90;;;;;;5051403;28;20056;-70
2021/12/14 00:16:57;;;;;;;20.30;12.80;;;9.20;99.90;;;;;;5030472;28;20049;-69
2021/12/14 00:19:25;;;;;;;17.70;12.93;;;9.30;99.90;;;;;;5041939;28;20082;-69
2021/12/14 00:21:54;;;;;;;18.85;12.90;;;9.20;99.90;;;;;;5033617;28;20041;-70
2021/12/14 00:24:22;;;;;;;17.92;12.10;;;9.20;99.90;;;;;;5050407;28;20045;-70
2021/12/14 00:26:55;;;;;;;18.13;12.52;;;9.20;99.90;;;;;;5051486;28;20041;-70
2021/12/14 00:29:27;;;;;;;16.70;11.80;;;9.20;99.90;;;;;;5047754;28;20052;-70
2021/12/14 00:31:56;;;;;;;17.05;11.95;;;9.20;99.90;;;;;;5050553;28;20045;-70
2021/12/14 00:34:35;;;;;;;20.55;12.50;;;9.20;99.90;;;;;;5050930;28;20045;-69
2021/12/14 00:37:07;;;;;;;16.02;12.50;;;9.20;99.90;;;;;;5046365;28;20053;-70
2021/12/14 00:39:33;;;;;;;17.83;12.80;;;9.20;99.90;;;;;;5050106;28;20564;-70
2021/12/14 00:41:58;;;;;;;20.58;10.93;;;9.20;99.90;;;;;;5045714;28;20116;-69
2021/12/14 00:44:24;;;;;;;16.27;11.80;;;9.20;99.90;;;;;;5034428;28;20037;-69
2021/12/14 00:46:50;;;;;;;14.20;10.27;;;9.30;99.90;;;;;;5043294;28;20080;-69
2021/12/14 00:49:17;;;;;;;17.35;11.80;;;9.30;99.90;;;;;;5028665;28;20071;-70
2021/12/14 00:51:43;;;;;;;17.38;11.60;;;9.20;99.90;;;;;;5022106;28;20045;-69
2021/12/14 00:54:12;;;;;;;15.63;10.32;;;9.50;99.90;;;;;;5049536;28;20057;-70
2021/12/14 00:56:39;;;;;;;17.00;11.55;;;9.30;99.90;;;;;;5031190;28;20084;-70
2021/12/14 00:59:07;;;;;;;17.02;11.13;;;9.40;99.90;;;;;;5045834;28;20073;-70
2021/12/14 01:01:43;;;;;;;17.45;11.65;;;9.30;99.90;;;;;;5036862;28;20490;-70
2021/12/14 01:04:16;;;;;;;17.55;11.27;;;9.30;99.90;;;;;;5036027;28;20056;-70
2021/12/14 01:06:45;;;;;;;15.57;11.43;;;9.30;99.90;;;;;;5047861;28;20044;-69
2021/12/14 01:09:16;;;;;;;17.10;11.90;;;9.30;99.90;;;;;;5039816;28;20063;-70
2021/12/14 01:11:45;;;;;;;19.02;12.15;;;9.30;99.90;;;;;;5045438;28;20075;-69
2021/12/14 01:14:40;;;;;;;17.55;11.38;;;9.30;99.90;;;;;;5039444;28;20163;-70
2021/12/14 01:17:24;;;;;;;17.30;11.75;;;9.30;99.90;;;;;;5042306;28;20057;-69
2021/12/14 01:19:56;;;;;;;16.80;11.88;;;9.30;99.90;;;;;;5047884;28;20072;-69
2021/12/14 01:22:40;;;;;;;18.40;11.88;;;9.20;99.90;;;;;;5046808;28;20049;-70
2021/12/14 01:25:24;;;;;;;20.20;12.45;;;9.30;99.90;;;;;;5048516;28;20041;-70
2021/12/14 01:27:55;;;;;;;17.50;12.13;;;9.30;99.90;;;;;;5034900;28;20055;-69
2021/12/14 01:31:05;;;;;;;19.45;11.98;;;9.30;99.90;;;;;;5030973;28;20046;-70
2021/12/14 01:33:32;;;;;;;21.30;12.63;;;9.30;99.90;;;;;;5041576;28;20164;-69
2021/12/14 01:36:00;;;;;;;19.90;13.40;;;9.20;99.90;;;;;;5031380;28;20049;-70
2021/12/14 01:40:57;;;;;;;20.98;12.98;;;9.30;99.90;;;;;;5044290;28;20053;-69
2021/12/14 01:43:35;;;;;;;19.35;12.48;;;9.20;99.90;;;;;;5029896;28;20041;-70
2021/12/14 01:46:36;;;;;;;20.77;12.88;;;9.20;99.90;;;;;;5046686;28;20512;-69
2021/12/14 01:49:06;;;;;;;19.27;12.38;;;9.20;99.90;;;;;;5032633;28;20050;-69
2021/12/14 01:51:33;;;;;;;19.30;13.20;;;9.20;99.90;;;;;;5043322;28;20484;-69
2021/12/14 01:54:00;;;;;;;19.40;13.55;;;9.20;99.90;;;;;;5047752;28;20091;-69
2021/12/14 01:56:29;;;;;;;21.05;13.13;;;9.20;99.90;;;;;;5037175;28;20049;-70
2021/12/14 01:59:00;;;;;;;19.63;13.35;;;9.20;99.90;;;;;;5048425;28;20099;-70
2021/12/14 02:01:36;;;;;;;18.15;12.98;;;9.20;99.90;;;;;;5045841;28;20081;-70
2021/12/14 02:04:16;;;;;;;21.10;14.20;;;9.20;99.90;;;;;;5046802;28;20135;-69
2021/12/14 02:06:43;;;;;;;21.38;14.43;;;9.10;99.90;;;;;;5028351;28;20042;-69
2021/12/14 02:09:16;;;;;;;19.73;13.82;;;9.10;99.90;;;;;;5039121;28;20354;-69
2021/12/14 02:11:46;;;;;;;20.67;13.75;;;9.20;99.90;;;;;;5047676;28;20053;-70
2021/12/14 02:14:12;;;;;;;23.13;14.60;;;9.20;99.90;;;;;;5047480;28;20128;-69
2021/12/14 02:16:39;;;;;;;20.08;14.25;;;9.20;99.90;;;;;;5048385;28;20071;-70
2021/12/14 02:19:13;;;;;;;19.98;13.48;;;9.20;99.90;;;;;;5047859;28;20452;-69
2021/12/14 02:21:42;;;;;;;23.33;14.85;;;9.20;99.90;;;;;;5046478;28;20055;-69
2021/12/14 02:24:10;;;;;;;19.83;14.57;;;9.20;99.90;;;;;;5047359;28;20440;-70
2021/12/14 02:26:43;;;;;;;22.08;15.05;;;9.20;99.90;;;;;;5034981;28;20382;-70
2021/12/14 02:29:19;;;;;;;21.65;15.57;;;9.20;99.90;;;;;;5030057;28;20037;-70
2021/12/14 02:31:45;;;;;;;20.60;15.80;;;9.20;99.90;;;;;;5049049;28;20045;-70
2021/12/14 02:34:11;;;;;;;19.30;13.27;;;9.10;99.90;;;;;;5040794;28;20087;-70
2021/12/14 02:36:46;;;;;;;24.80;16.92;;;9.20;99.90;;;;;;5041450;28;20036;-69
2021/12/14 02:42:03;;;;;;;25.17;17.38;;;9.10;99.90;;;;;;5042013;28;20084;-69
2021/12/14 02:44:29;;;;;;;25.42;16.08;;;9.10;99.90;;;;;;5034214;28;20033;-70
2021/12/14 02:47:08;;;;;;;28.77;17.58;;;9.10;99.90;;;;;;5048613;28;21100;-70
2021/12/14 02:49:36;;;;;;;27.38;16.50;;;9.10;99.90;;;;;;5041062;28;20049;-70
2021/12/14 02:52:08;;;;;;;28.17;17.67;;;9.10;99.90;;;;;;5035670;28;20029;-69
2021/12/14 02:54:42;;;;;;;24.38;17.05;;;9.10;99.90;;;;;;5047052;28;20049;-70
2021/12/14 02:57:18;;;;;;;26.40;17.20;;;9.00;99.90;;;;;;5047701;28;20053;-70
2021/12/14 02:59:46;;;;;;;24.10;18.10;;;9.00;99.90;;;;;;5047324;28;20041;-70
2021/12/14 03:02:16;;;;;;;23.60;16.13;;;9.00;99.90;;;;;;5045815;28;20116;-70
2021/12/14 03:04:57;;;;;;;26.83;17.50;;;9.00;99.90;;;;;;5048150;28;20041;-69
2021/12/14 03:07:30;;;;;;;25.23;17.30;;;9.00;99.90;;;;;;5047536;28;20045;-70
2021/12/14 03:10:33;;;;;;;27.38;17.80;;;9.00;99.90;;;;;;5045638;28;20041;-70
2021/12/14 03:12:49;;;;;;;25.77;18.08;;;9.00;99.90;;;;;;5047604;28;20060;-69
2021/12/14 03:15:22;;;;;;;25.83;18.23;;;8.90;99.90;;;;;;5047648;28;20033;-70
2021/12/14 03:17:51;;;;;;;26.77;17.33;;;8.90;99.90;;;;;;5046447;28;20057;-69
2021/12/14 03:20:28;;;;;;;28.08;17.02;;;9.00;99.90;;;;;;5034589;28;20045;-70
2021/12/14 03:23:03;;;;;;;29.33;19.33;;;9.00;99.90;;;;;;5027724;28;20552;-69
2021/12/14 03:25:30;;;;;;;27.13;18.38;;;9.00;99.90;;;;;;5027652;28;20417;-69
2021/12/14 03:27:58;;;;;;;29.60;18.52;;;9.00;99.90;;;;;;5044693;28;20374;-70
2021/12/14 03:30:31;;;;;;;26.98;17.98;;;9.00;99.90;;;;;;5046718;28;20041;-70
2021/12/14 03:33:04;;;;;;;23.98;16.30;;;8.90;99.90;;;;;;5047241;28;20060;-70
2021/12/14 03:35:43;;;;;;;29.30;19.27;;;8.90;99.90;;;;;;5048790;28;20049;-69
2021/12/14 03:38:32;;;;;;;29.88;19.17;;;9.00;99.90;;;;;;5044765;28;20056;-70
2021/12/14 03:41:06;;;;;;;26.88;18.58;;;8.90;99.90;;;;;;5037998;28;20064;-69
2021/12/14 03:43:33;;;;;;;27.50;19.67;;;8.90;99.90;;;;;;5032513;28;20099;-69
2021/12/14 03:45:58;;;;;;;30.95;19.00;;;8.90;99.90;;;;;;5048611;28;20055;-69
2021/12/14 03:48:29;;;;;;;30.40;18.63;;;9.00;99.90;;;;;;5049995;28;20049;-69
2021/12/14 03:50:55;;;;;;;29.20;19.00;;;9.00;99.90;;;;;;5042479;28;20056;-69
2021/12/14 03:53:23;;;;;;;28.85;19.75;;;8.90;99.90;;;;;;5030484;28;20033;-70
2021/12/14 03:55:53;;;;;;;28.73;19.67;;;8.90;99.90;;;;;;5031844;28;20051;-70
2021/12/14 03:58:30;;;;;;;28.15;18.98;;;8.90;99.90;;;;;;5049703;28;20559;-70
2021/12/14 04:00:59;;;;;;;31.00;20.25;;;9.00;99.90;;;;;;5052130;28;20052;-69
2021/12/14 04:03:29;;;;;;;28.48;19.98;;;8.90;99.90;;;;;;5035054;28;20167;-70
2021/12/14 04:05:55;;;;;;;30.35;20.60;;;9.80;99.90;;;;;;5049775;28;20059;-69
2021/12/14 04:08:23;;;;;;;31.20;20.58;;;8.90;99.90;;;;;;5050616;28;20044;-69
2021/12/14 04:10:49;;;;;;;31.77;20.73;;;9.10;99.90;;;;;;5049033;28;20041;-69
2021/12/14 04:13:25;;;;;;;30.98;20.85;;;8.90;99.90;;;;;;5030962;28;20045;-70
2021/12/14 04:15:52;;;;;;;33.05;20.58;;;9.70;99.90;;;;;;5049255;28;20128;-69
2021/12/14 04:18:19;;;;;;;32.00;20.20;;;8.90;99.90;;;;;;5031529;28;20374;-69
2021/12/14 04:20:46;;;;;;;28.25;20.70;;;8.90;99.90;;;;;;5022146;28;20041;-70
2021/12/14 04:23:37;;;;;;;29.15;17.40;;;9.00;99.90;;;;;;5049016;28;20045;-69
2021/12/14 04:26:06;;;;;;;31.05;19.95;;;9.00;99.90;;;;;;5033699;28;20541;-69
2021/12/14 04:28:43;;;;;;;28.30;20.17;;;9.00;99.90;;;;;;5034872;28;20081;-69
2021/12/14 04:31:09;;;;;;;31.10;20.48;;;9.00;99.90;;;;;;5041159;28;20084;-70
2021/12/14 04:33:38;;;;;;;30.13;20.27;;;9.00;99.90;;;;;;5034934;28;20111;-70
2021/12/14 04:36:07;;;;;;;31.08;20.90;;;9.10;99.90;;;;;;5050665;28;20049;-69
2021/12/14 04:38:43;;;;;;;29.60;20.80;;;9.00;99.90;;;;;;5047826;28;20338;-70
2021/12/14 04:52:21;;;;;;;30.30;20.38;;;9.00;99.90;;;;;;5045696;28;20791;-70
2021/12/14 04:54:57;;;;;;;35.70;23.35;;;8.40;99.90;;;;;;5050216;28;20041;-70
2021/12/14 04:57:34;;;;;;;35.30;20.58;;;9.00;99.90;;;;;;5050157;28;20124;-69
2021/12/14 05:00:15;;;;;;;37.67;22.48;;;8.90;99.90;;;;;;5049218;28;20041;-69
2021/12/14 05:02:41;;;;;;;35.13;21.55;;;9.30;99.90;;;;;;5048599;28;20098;-70
2021/12/14 05:05:09;;;;;;;36.97;23.70;;;8.80;99.90;;;;;;5029960;28;20045;-69
2021/12/14 05:10:08;;;;;;;35.47;23.17;;;8.80;99.90;;;;;;5048485;28;20060;-69
2021/12/14 05:12:36;;;;;;;37.97;23.80;;;8.70;99.90;;;;;;5049093;28;20560;-69
2021/12/14 05:15:07;;;;;;;35.28;23.02;;;8.70;99.90;;;;;;5031003;28;20049;-70
2021/12/14 05:17:36;;;;;;;31.13;20.88;;;8.80;99.90;;;;;;5017573;28;20127;-70
2021/12/14 05:20:04;;;;;;;36.15;23.25;;;8.80;99.90;;;;;;5049431;28;20063;-69
2021/12/14 05:22:34;;;;;;;32.90;22.42;;;8.80;99.90;;;;;;5035350;28;20045;-69
2021/12/14 05:25:05;;;;;;;34.65;23.13;;;8.70;99.90;;;;;;5038750;28;20052;-69
2021/12/14 05:27:38;;;;;;;37.47;24.20;;;8.80;99.90;;;;;;5052025;28;20524;-69
2021/12/14 05:30:09;;;;;;;36.95;24.02;;;9.70;99.90;;;;;;5049916;28;20072;-69
2021/12/14 05:32:35;;;;;;;38.30;23.08;;;8.80;99.90;;;;;;5047981;28;20468;-69
2021/12/14 05:35:02;;;;;;;36.03;23.85;;;8.80;99.90;;;;;;5032275;28;20041;-70
2021/12/14 05:37:31;;;;;;;39.08;25.52;;;8.80;99.90;;;;;;5046414;28;20049;-70
2021/12/14 05:40:05;;;;;;;36.30;22.55;;;8.70;99.90;;;;;;5031954;28;20054;-69
2021/12/14 05:45:21;;;;;;;38.78;24.75;;;8.70;99.90;;;;;;5031185;28;20081;-70
2021/12/14 05:47:50;;;;;;;39.40;25.55;;;8.80;99.90;;;;;;5030409;28;20505;-69
2021/12/14 05:50:23;;;;;;;36.75;24.17;;;8.70;99.90;;;;;;5035610;28;20223;-69
2021/12/14 05:52:49;;;;;;;39.10;25.98;;;8.70;99.90;;;;;;5046360;28;20084;-70
2021/12/14 05:55:20;;;;;;;38.10;25.83;;;8.70;99.90;;;;;;5037462;28;20104;-69
2021/12/14 05:57:45;;;;;;;36.92;24.60;;;8.70;99.90;;;;;;5028515;28;20220;-70
2021/12/14 06:00:15;;;;;;;40.25;25.30;;;8.60;99.90;;;;;;5040349;28;20157;-70
2021/12/14 06:02:40;;;;;;;40.30;23.88;;;8.70;99.90;;;;;;5051697;28;20041;-70
2021/12/14 06:05:18;;;;;;;38.65;24.65;;;9.20;99.90;;;;;;5048566;28;20029;-70
2021/12/14 06:07:44;;;;;;;40.03;25.77;;;8.60;99.90;;;;;;5044473;28;20049;-70
2021/12/14 06:10:12;;;;;;;40.55;25.60;;;8.60;99.90;;;;;;5047991;28;20064;-70
2021/12/14 06:12:39;;;;;;;38.00;23.52;;;8.70;99.90;;;;;;5046310;28;20459;-70
2021/12/14 06:15:10;;;;;;;41.15;25.50;;;8.70;99.90;;;;;;5048003;28;20081;-70
2021/12/14 06:17:39;;;;;;;40.00;26.15;;;8.70;99.90;;;;;;5048650;28;20459;-70
2021/12/14 06:20:07;;;;;;;38.15;25.00;;;8.70;99.90;;;;;;5046566;28;20053;-70
2021/12/14 06:22:34;;;;;;;39.83;25.95;;;8.70;99.90;;;;;;5043044;28;20607;-70
2021/12/14 06:25:07;;;;;;;37.80;24.10;;;9.80;99.90;;;;;;5047964;28;20489;-70
2021/12/14 06:27:33;;;;;;;36.20;24.67;;;8.80;99.90;;;;;;5046890;28;20498;-70
2021/12/14 06:30:02;;;;;;;40.42;26.00;;;8.80;99.90;;;;;;5049087;28;20037;-70
2021/12/14 06:32:34;;;;;;;39.40;23.40;;;9.60;99.90;;;;;;5046601;28;20095;-70
2021/12/14 06:35:17;;;;;;;38.88;25.55;;;8.80;99.90;;;;;;5038686;28;20038;-70
2021/12/14 06:38:08;;;;;;;39.55;25.23;;;8.80;99.90;;;;;;5026973;28;20041;-70
2021/12/14 06:40:40;;;;;;;39.05;25.88;;;8.80;99.90;;;;;;5041496;28;20486;-70
2021/12/14 06:43:10;;;;;;;42.05;26.45;;;8.80;99.90;;;;;;5032884;28;20052;-70
2021/12/14 06:45:39;;;;;;;45.25;27.48;;;8.70;99.90;;;;;;5048272;28;20412;-70
2021/12/14 06:48:13;;;;;;;43.10;26.83;;;8.80;99.90;;;;;;5044992;28;20460;-70
2021/12/14 06:50:58;;;;;;;42.80;27.33;;;8.80;99.90;;;;;;5047681;28;20103;-70
2021/12/14 06:53:24;;;;;;;42.15;26.95;;;8.70;99.90;;;;;;5041985;28;20191;-69
2021/12/14 06:55:53;;;;;;;42.60;25.33;;;8.70;99.90;;;;;;5014268;28;20525;-70
2021/12/14 06:58:22;;;;;;;43.25;26.02;;;8.70;99.90;;;;;;5027884;28;20053;-70
2021/12/14 07:00:58;;;;;;;42.83;26.63;;;8.80;99.90;;;;;;5028183;28;20057;-70
2021/12/14 07:03:54;;;;;;;40.83;26.38;;;8.80;99.90;;;;;;5029881;28;20050;-70
2021/12/14 07:06:26;;;;;;;41.53;27.77;;;9.30;99.90;;;;;;5008184;28;20045;-71
2021/12/14 07:08:53;;;;;;;48.63;26.33;;;8.80;99.90;;;;;;5011199;28;20065;-71
2021/12/14 07:11:24;;;;;;;44.00;26.50;;;8.80;99.90;;;;;;5013735;28;20095;-71
2021/12/14 07:13:52;;;;;;;42.47;27.52;;;8.80;99.90;;;;;;5033541;28;20351;-71
2021/12/14 07:16:30;;;;;;;43.10;26.80;;;8.80;99.90;;;;;;5030541;28;20402;-70
2021/12/14 07:18:58;;;;;;;42.53;26.67;;;8.80;99.90;;;;;;5011493;28;20211;-71
2021/12/14 07:21:37;;;;;;;41.85;25.50;;;8.80;99.90;;;;;;5032030;28;20048;-71
2021/12/14 07:24:31;;;;;;;43.80;26.83;;;9.10;99.90;;;;;;5047187;28;20056;-70
2021/12/14 07:27:27;;;;;;;47.80;28.10;;;8.80;99.90;;;;;;5033673;28;20158;-70
2021/12/14 07:30:07;;;;;;;46.65;26.55;;;8.80;99.90;;;;;;5027903;28;20045;-70
2021/12/14 07:32:42;;;;;;;45.40;28.45;;;8.80;99.90;;;;;;5034779;28;20513;-70
2021/12/14 07:35:20;;;;;;;49.05;28.58;;;8.80;99.90;;;;;;5041834;28;20099;-70
2021/12/14 07:37:46;;;;;;;48.30;29.25;;;8.80;99.90;;;;;;5028040;28;20430;-70
2021/12/14 07:40:12;;;;;;;51.45;29.52;;;8.80;99.90;;;;;;5046056;28;20045;-70
2021/12/14 07:42:38;;;;;;;47.60;29.88;;;8.80;99.90;;;;;;5045821;28;20507;-71
2021/12/14 07:45:06;;;;;;;53.72;30.30;;;8.80;99.90;;;;;;5047895;28;20041;-70
2021/12/14 07:47:32;;;;;;;54.33;30.13;;;8.80;99.90;;;;;;5022657;28;20042;-70
2021/12/14 07:49:58;;;;;;;49.45;29.90;;;8.80;99.90;;;;;;5042181;28;20053;-70
2021/12/14 07:52:35;;;;;;;53.75;30.83;;;8.80;99.90;;;;;;5045472;28;20478;-67
2021/12/14 07:55:11;;;;;;;53.03;31.13;;;8.80;99.90;;;;;;5048475;28;20448;-67
2021/12/14 07:57:39;;;;;;;52.00;31.02;;;8.80;99.90;;;;;;5047574;28;20048;-67
2021/12/14 08:00:19;;;;;;;55.28;32.25;;;8.80;99.90;;;;;;5047042;28;20361;-66
2021/12/14 08:02:51;;;;;;;52.92;31.40;;;8.80;99.90;;;;;;5048095;28;20497;-66
2021/12/14 08:05:40;;;;;;;56.03;30.02;;;9.70;99.90;;;;;;5043642;28;20041;-67
2021/12/14 08:08:18;;;;;;;56.60;31.42;;;8.80;99.90;;;;;;5048574;28;20049;-67
2021/12/14 08:11:08;;;;;;;56.35;31.80;;;8.80;99.90;;;;;;5030085;28;20048;-67
2021/12/14 08:13:49;;;;;;;60.75;32.90;;;8.80;99.90;;;;;;5019361;28;20104;-68
2021/12/14 08:16:16;;;;;;;63.25;33.50;;;8.80;99.90;;;;;;5027509;28;20052;-68
2021/12/14 08:18:43;;;;;;;59.30;32.45;;;8.80;99.90;;;;;;5036541;28;20057;-68
2021/12/14 08:21:17;;;;;;;58.17;32.45;;;8.80;99.90;;;;;;5035628;28;20045;-68
2021/12/14 08:23:57;;;;;;;59.50;31.50;;;8.70;99.90;;;;;;5045526;28;20132;-68
2021/12/14 08:26:40;;;;;;;51.50;32.03;;;8.80;99.90;;;;;;5029809;28;20041;-68
2021/12/14 08:29:07;;;;;;;53.53;30.45;;;8.80;99.90;;;;;;5047874;28;20493;-68
2021/12/14 08:31:41;;;;;;;59.72;32.08;;;8.90;99.90;;;;;;5051911;28;20426;-67
2021/12/14 08:34:10;;;;;;;55.30;30.30;;;8.90;99.90;;;;;;5039707;28;20395;-67
2021/12/14 08:36:41;;;;;;;56.22;31.60;;;9.30;99.90;;;;;;5034931;28;20594;-67
2021/12/14 08:39:18;;;;;;;56.83;30.65;;;8.90;99.90;;;;;;5013914;28;20045;-67
2021/12/14 08:41:55;;;;;;;52.83;30.58;;;8.90;99.90;;;;;;5048100;28;20569;-66
2021/12/14 08:44:38;;;;;;;59.80;32.70;;;9.30;99.90;;;;;;5038132;28;20053;-66
2021/12/14 08:47:08;;;;;;;53.58;31.40;;;8.90;99.90;;;;;;5047659;28;20056;-68
2021/12/14 08:49:35;;;;;;;56.72;31.00;;;8.90;99.90;;;;;;5050830;28;20045;-68
2021/12/14 08:52:02;;;;;;;55.78;31.10;;;9.00;99.90;;;;;;5045719;28;20052;-69
2021/12/14 08:54:30;;;;;;;55.38;31.42;;;8.90;99.90;;;;;;5039419;28;20429;-67
2021/12/14 08:57:10;;;;;;;56.72;32.05;;;9.00;99.90;;;;;;5030768;28;20121;-66
2021/12/14 08:59:39;;;;;;;52.97;31.55;;;9.00;99.90;;;;;;5034546;28;20052;-67
2021/12/14 09:02:07;;;;;;;62.95;32.28;;;9.00;99.90;;;;;;5030458;28;20049;-67
2021/12/14 09:04:40;;;;;;;55.25;31.98;;;8.90;99.90;;;;;;5038049;28;20049;-66
2021/12/14 09:07:12;;;;;;;58.83;31.70;;;8.90;99.90;;;;;;5047888;28;20500;-67
2021/12/14 09:09:40;;;;;;;59.50;32.80;;;8.90;99.90;;;;;;5050099;28;20127;-67
2021/12/14 09:12:16;;;;;;;63.30;32.47;;;9.00;99.90;;;;;;5050322;28;20606;-66
2021/12/14 09:14:45;;;;;;;55.50;31.20;;;8.90;99.90;;;;;;5052115;28;20053;-66
2021/12/14 09:17:14;;;;;;;61.00;31.88;;;9.00;99.90;;;;;;5050074;28;20061;-67
2021/12/14 09:19:45;;;;;;;59.20;31.80;;;8.90;99.90;;;;;;5046686;28;20239;-66
2021/12/14 09:22:17;;;;;;;59.22;32.40;;;8.90;99.90;;;;;;5045764;28;20100;-67
2021/12/14 09:24:46;;;;;;;53.17;30.95;;;9.00;99.90;;;;;;5061614;28;20064;-67
2021/12/14 09:27:18;;;;;;;61.88;31.00;;;9.00;99.90;;;;;;5058187;28;20045;-67
2021/12/14 09:29:44;;;;;;;62.60;33.58;;;9.00;99.90;;;;;;5030639;28;20144;-67
2021/12/14 09:32:13;;;;;;;56.90;31.75;;;9.00;99.90;;;;;;5030589;28;20049;-67
2021/12/14 09:34:41;;;;;;;58.08;31.38;;;9.00;99.90;;;;;;5028938;28;20038;-67
2021/12/14 09:37:10;;;;;;;60.88;32.53;;;9.30;99.90;;;;;;5045365;28;20139;-67
2021/12/14 09:39:45;;;;;;;59.20;32.58;;;9.10;99.90;;;;;;5047543;28;20533;-67
2021/12/14 09:42:13;;;;;;;;;;;9.10;99.90;;;;;;5045092;28;20131;-67
2021/12/14 09:44:39;;;;;;;55.40;31.02;;;9.10;99.90;;;;;;5045886;28;19998;-67
2021/12/14 09:47:12;;;;;;;55.22;31.23;;;9.10;99.90;;;;;;5027730;28;20131;-67
2021/12/14 09:49:40;;;;;;;66.32;31.52;;;9.20;99.90;;;;;;5027210;28;20419;-67
2021/12/14 09:52:12;;;;;;;56.60;31.90;;;9.20;99.90;;;;;;5027205;28;20041;-67
2021/12/14 09:54:39;;;;;;;58.55;31.27;;;9.20;99.90;;;;;;5031367;28;20102;-67
2021/12/14 09:57:13;;;;;;;56.20;30.02;;;9.10;99.90;;;;;;5036417;28;20055;-67
2021/12/14 09:59:39;;;;;;;55.90;31.90;;;9.10;99.90;;;;;;5039554;28;20404;-67
2021/12/14 10:02:13;;;;;;;56.65;32.47;;;9.60;99.90;;;;;;5045981;28;20041;-66
2021/12/14 10:04:45;;;;;;;53.92;30.25;;;9.20;99.90;;;;;;5026070;28;20504;-67
2021/12/14 10:07:11;;;;;;;54.95;31.08;;;9.20;99.90;;;;;;5026146;28;20111;-67
2021/12/14 10:09:43;;;;;;;52.08;30.48;;;9.80;99.90;;;;;;5030008;28;20498;-67
2021/12/14 10:12:39;;;;;;;56.13;32.10;;;9.20;99.90;;;;;;5026919;28;20045;-67
2021/12/14 10:15:15;;;;;;;49.83;29.35;;;9.20;99.90;;;;;;5030826;28;20060;-67
2021/12/14 10:17:43;;;;;;;55.90;29.77;;;9.20;99.90;;;;;;5024518;28;20498;-80
2021/12/14 10:20:14;;;;;;;51.97;29.40;;;9.20;99.90;;;;;;5023101;28;20050;-80
2021/12/14 10:22:40;;;;;;;49.83;29.02;;;9.20;99.90;;;;;;5023544;28;20332;-80
2021/12/14 10:25:14;;;;;;;57.03;31.38;;;9.20;99.90;;;;;;5025305;28;20053;-81
2021/12/14 10:27:41;;;;;;;56.95;30.67;;;9.20;99.90;;;;;;5025783;28;20041;-81
2021/12/14 10:30:23;;;;;;;54.08;29.25;;;9.30;99.90;;;;;;5008019;28;20045;-81
2021/12/14 10:32:49;;;;;;;58.40;32.13;;;9.10;99.90;;;;;;5023430;28;20053;-78
2021/12/14 10:35:22;;;;;;;60.90;32.40;;;9.10;99.90;;;;;;5024412;28;20484;-81
2021/12/14 10:43:15;;;;;;;58.45;31.38;;;9.20;99.90;;;;;;5045128;28;20057;-80
2021/12/14 10:46:08;;;;;;;54.13;29.20;;;9.30;99.90;;;;;;5030140;28;20125;-68
2021/12/14 10:48:43;;;;;;;50.60;30.08;;;9.30;99.90;;;;;;5021069;28;20080;-68
2021/12/14 10:51:12;;;;;;;53.45;30.88;;;9.30;99.90;;;;;;5029509;28;20098;-69
2021/12/14 10:53:42;;;;;;;49.92;28.58;;;9.30;99.90;;;;;;5027487;28;20126;-68
2021/12/14 10:56:15;;;;;;;50.35;29.73;;;9.20;99.90;;;;;;5040295;28;20053;-68
2021/12/14 10:58:44;;;;;;;49.83;28.95;;;9.30;99.90;;;;;;5047697;28;20501;-67
2021/12/14 11:01:20;;;;;;;49.30;27.58;;;9.30;99.90;;;;;;5046864;28;20400;-66
2021/12/14 11:03:48;;;;;;;;;;;9.30;99.90;;;;;;5048576;28;20172;-66
2021/12/14 11:06:20;;;;;;;48.22;26.85;;;9.30;99.90;;;;;;5045634;28;20435;-67
2021/12/14 11:08:59;;;;;;;48.95;25.65;;;9.30;99.90;;;;;;5029292;28;20056;-67
2021/12/14 11:11:38;;;;;;;52.75;28.30;;;9.30;99.90;;;;;;5029508;28;20925;-67
2021/12/14 11:14:12;;;;;;;51.10;27.83;;;9.50;99.90;;;;;;5029848;28;20053;-66
2021/12/14 11:19:47;;;;;;;49.85;27.02;;;9.30;99.90;;;;;;5045509;28;20100;-67
2021/12/14 11:22:32;;;;;;;54.80;29.00;;;9.30;99.90;;;;;;5045041;28;20106;-67
2021/12/14 11:25:08;;;;;;;50.27;28.23;;;9.40;99.90;;;;;;5045999;28;20139;-67
2021/12/14 11:27:42;;;;;;;49.50;26.80;;;9.30;99.90;;;;;;5044560;28;20440;-67
2021/12/14 11:30:11;;;;;;;47.88;27.50;;;9.30;99.90;;;;;;5028995;28;20401;-67
2021/12/14 11:32:41;;;;;;;50.42;27.02;;;9.60;99.90;;;;;;5045156;28;20037;-67
2021/12/14 11:35:27;;;;;;;55.05;29.73;;;10.20;99.90;;;;;;5044185;28;20048;-67
2021/12/14 11:37:56;;;;;;;50.55;27.13;;;9.40;99.90;;;;;;5045867;28;20386;-67
2021/12/14 11:40:24;;;;;;;49.00;25.77;;;9.40;99.90;;;;;;5045220;28;20041;-68
2021/12/14 11:42:52;;;;;;;49.00;27.02;;;9.40;99.90;;;;;;5044881;28;20045;-68
2021/12/14 11:45:22;;;;;;;52.10;26.70;;;9.40;99.90;;;;;;5046781;28;20053;-68
2021/12/14 11:47:54;;;;;;;49.75;24.92;;;9.80;99.90;;;;;;5048564;28;20060;-68
2021/12/14 11:50:38;;;;;;;49.03;27.15;;;9.50;99.90;;;;;;5044560;28;20123;-69
2021/12/14 11:53:07;;;;;;;46.13;24.65;;;10.30;99.90;;;;;;5045194;28;20029;-67
2021/12/14 11:55:50;;;;;;;44.65;24.88;;;9.40;99.90;;;;;;5044992;28;20044;-66
2021/12/14 11:58:31;;;;;;;47.78;24.30;;;9.40;99.90;;;;;;5046411;28;20037;-67
2021/12/14 12:01:20;;;;;;;45.03;24.55;;;10.30;99.90;;;;;;5044857;28;20072;-66
2021/12/14 12:04:05;;;;;;;46.53;23.70;;;9.40;99.90;;;;;;5047829;28;20037;-68
2021/12/14 12:06:45;;;;;;;46.65;25.08;;;9.40;99.90;;;;;;5048070;28;20052;-66
2021/12/14 12:12:05;;;;;;;40.58;21.85;;;9.50;99.90;;;;;;5048044;28;20115;-72
2021/12/14 12:14:33;;;;;;;39.22;21.92;;;9.50;99.90;;;;;;5024948;28;20092;-71
2021/12/14 12:17:20;;;;;;;40.03;21.70;;;9.50;99.90;;;;;;4989289;28;1058759;-72
2021/12/14 12:19:57;;;;;;;45.03;22.42;;;9.50;99.90;;;;;;5026937;28;20084;-72
2021/12/14 12:22:25;;;;;;;43.72;22.60;;;9.50;99.90;;;;;;5008238;28;20033;-71
2021/12/14 12:24:54;;;;;;;43.55;22.10;;;9.40;99.90;;;;;;5026787;28;20053;-71
2021/12/14 12:27:22;;;;;;;44.72;24.08;;;9.50;99.90;;;;;;5026773;28;20038;-71
2021/12/14 12:30:09;;;;;;;45.05;23.25;;;9.50;99.90;;;;;;5028133;28;20050;-71
2021/12/14 12:32:36;;;;;;;39.55;21.13;;;9.50;99.90;;;;;;5031597;28;20079;-71
2021/12/14 12:35:18;;;;;;;42.22;21.10;;;9.50;99.90;;;;;;5037079;28;20447;-71
2021/12/14 12:37:44;;;;;;;37.65;20.52;;;9.40;99.90;;;;;;5043747;28;20452;-71
2021/12/14 12:40:15;;;;;;;41.63;21.05;;;9.50;99.90;;;;;;5046182;28;20056;-71
2021/12/14 12:42:42;;;;;;;41.78;20.63;;;9.40;99.90;;;;;;5047257;28;20124;-71
2021/12/14 12:45:31;;;;;;;35.78;19.40;;;9.40;99.90;;;;;;5047226;28;20098;-71
2021/12/14 12:47:57;;;;;;;36.92;19.08;;;9.40;99.90;;;;;;5047372;28;20152;-71
2021/12/14 12:50:24;;;;;;;35.78;18.05;;;9.50;99.90;;;;;;5041949;28;20099;-71
2021/12/14 12:52:50;;;;;;;33.67;19.85;;;9.50;99.90;;;;;;5031430;28;20045;-67
2021/12/14 12:55:21;;;;;;;35.22;18.63;;;9.50;99.90;;;;;;5029526;28;20034;-67
2021/12/14 12:58:10;;;;;;;34.28;18.60;;;9.50;99.90;;;;;;5040577;28;20186;-67
2021/12/14 13:00:52;;;;;;;33.20;17.75;;;9.60;99.90;;;;;;5049510;28;20075;-67
2021/12/14 13:03:31;;;;;;;33.70;18.02;;;9.50;99.90;;;;;;5048372;28;20033;-68
2021/12/14 13:06:05;;;;;;;34.45;17.60;;;9.50;99.90;;;;;;5047129;28;20107;-68
2021/12/14 13:08:41;;;;;;;36.35;17.58;;;9.60;99.90;;;;;;5045606;28;20233;-67
2021/12/14 13:11:14;;;;;;;32.75;17.08;;;9.60;99.90;;;;;;5049387;28;20376;-67
2021/12/14 13:13:45;;;;;;;30.95;16.38;;;9.70;99.90;;;;;;5048459;28;20500;-68
2021/12/14 13:16:21;;;;;;;31.90;16.58;;;9.60;99.90;;;;;;5046550;28;20510;-67
2021/12/14 13:18:51;;;;;;;33.55;17.13;;;9.60;99.90;;;;;;5028573;28;20060;-68
2021/12/14 13:21:23;;;;;;;31.23;16.30;;;9.60;99.90;;;;;;5029276;28;20061;-68
2021/12/14 13:24:18;;;;;;;31.25;16.33;;;9.70;99.90;;;;;;5028437;28;20091;-68
2021/12/14 13:26:47;;;;;;;26.55;15.32;;;9.70;99.90;;;;;;5030030;28;20413;-67
2021/12/14 13:29:13;;;;;;;26.40;14.20;;;9.70;99.90;;;;;;5041969;28;20045;-67
2021/12/14 13:31:49;;;;;;;26.52;14.93;;;9.70;99.90;;;;;;5043944;28;20526;-67
2021/12/14 13:34:28;;;;;;;25.88;14.75;;;9.70;99.90;;;;;;5031178;28;20083;-68
2021/12/14 13:36:56;;;;;;;27.92;14.38;;;9.70;99.90;;;;;;5027613;28;20088;-69
2021/12/14 13:39:23;;;;;;;26.67;14.05;;;9.70;99.90;;;;;;5042160;28;20084;-68